createdAt,value
2019-04-26T00:01:24.307Z,23.35
2019-04-26T00:03:54.226Z,24.10
2019-04-26T00:06:36.790Z,24.00
2019-04-26T00:09:13.955Z,25.75
2019-04-26T00:11:45.142Z,25.68
2019-04-26T00:14:18.904Z,25.20
2019-04-26T00:16:50.268Z,26.52
2019-04-26T00:19:19.876Z,25.17
2019-04-26T00:21:49.791Z,26.10
2019-04-26T00:24:20.016Z,26.30
2019-04-26T00:26:49.620Z,27.32
2019-04-26T00:29:19.230Z,25.43
2019-04-26T00:31:49.143Z,25.12
2019-04-26T00:34:19.613Z,24.20
2019-04-26T00:37:08.626Z,23.60
2019-04-26T00:39:38.180Z,24.07
2019-04-26T00:44:36.370Z,21.80
2019-04-26T00:49:43.499Z,21.83
2019-04-26T00:52:25.284Z,22.48
2019-04-26T00:55:06.807Z,23.32
2019-04-26T00:57:36.367Z,23.02
2019-04-26T01:02:37.335Z,23.83
2019-04-26T01:05:06.964Z,23.65
2019-04-26T01:07:36.517Z,23.80
2019-04-26T01:12:34.912Z,24.60
2019-04-26T01:15:06.731Z,25.43
2019-04-26T01:17:36.459Z,27.07
2019-04-26T01:20:06.871Z,32.08
2019-04-26T01:22:39.654Z,36.40
2019-04-26T01:25:18.874Z,36.70
2019-04-26T01:28:01.553Z,38.63
2019-04-26T01:30:31.180Z,39.08
2019-04-26T01:33:01.711Z,40.20
2019-04-26T01:35:50.721Z,41.90
2019-04-26T01:38:20.723Z,46.15
2019-04-26T01:40:52.884Z,46.83
2019-04-26T01:43:33.301Z,47.95
2019-04-26T01:46:07.131Z,49.55
2019-04-26T01:49:21.362Z,45.40
2019-04-26T01:52:00.165Z,50.30
2019-04-26T01:54:32.902Z,54.20
2019-04-26T01:57:04.535Z,51.85
2019-04-26T01:59:34.163Z,51.05
2019-04-26T02:02:05.351Z,48.55
2019-04-26T02:04:36.483Z,38.78
2019-04-26T02:07:06.020Z,39.20
2019-04-26T02:12:04.340Z,26.37
2019-04-26T02:17:03.334Z,26.27
2019-04-26T02:19:45.045Z,31.12
2019-04-26T02:22:19.198Z,30.20
2019-04-26T02:24:50.335Z,30.05
2019-04-26T02:27:21.524Z,30.75
2019-04-26T02:29:51.080Z,30.68
2019-04-26T02:34:49.273Z,38.53
2019-04-26T02:37:18.763Z,31.02
2019-04-26T02:42:28.794Z,143.72
2019-04-26T02:45:34.262Z,306.57
2019-04-26T02:48:23.255Z,40.35
2019-04-26T02:51:13.897Z,33.88
2019-04-26T02:54:19.629Z,35.58
2019-04-26T02:56:49.252Z,30.15
2019-04-26T03:02:10.717Z,29.10
2019-04-26T03:04:40.276Z,27.25
2019-04-26T03:09:43.012Z,23.80
2019-04-26T03:12:15.579Z,25.88
2019-04-26T03:14:54.222Z,25.43
2019-04-26T03:20:40.259Z,22.02
2019-04-26T03:23:15.802Z,22.42
2019-04-26T03:26:03.779Z,21.27
2019-04-26T03:28:54.307Z,19.67
2019-04-26T03:31:27.100Z,18.73
2019-04-26T03:34:00.000Z,18.00
2019-04-26T03:37:20.934Z,18.27
2019-04-26T03:39:57.048Z,19.17
2019-04-26T03:42:46.321Z,19.27
2019-04-26T03:45:42.164Z,19.12
2019-04-26T03:48:35.906Z,20.02
2019-04-26T03:51:39.106Z,19.67
2019-04-26T03:54:17.425Z,19.25
2019-04-26T03:56:51.274Z,18.48
2019-04-26T03:59:36.207Z,18.73
2019-04-26T04:02:26.845Z,18.40
2019-04-26T04:05:27.855Z,18.55
2019-04-26T04:07:58.433Z,18.48
2019-04-26T04:13:10.636Z,18.45
2019-04-26T04:18:30.778Z,17.95
2019-04-26T04:21:25.588Z,18.37
2019-04-26T04:24:19.105Z,18.05
2019-04-26T04:27:20.414Z,22.42
2019-04-26T04:30:16.901Z,20.92
2019-04-26T04:33:14.589Z,17.55
2019-04-26T04:35:49.208Z,18.85
2019-04-26T04:38:24.316Z,20.20
2019-04-26T04:41:18.844Z,19.95
2019-04-26T04:44:08.185Z,22.35
2019-04-26T04:46:54.324Z,18.52
2019-04-26T04:49:30.632Z,19.15
2019-04-26T04:52:29.958Z,19.42
2019-04-26T04:55:14.291Z,19.98
2019-04-26T04:58:23.084Z,20.15
2019-04-26T05:01:15.084Z,20.40
2019-04-26T05:03:51.045Z,21.12
2019-04-26T05:06:34.238Z,21.30
2019-04-26T05:09:07.488Z,21.40
2019-04-26T05:11:46.247Z,22.65
2019-04-26T05:14:50.639Z,22.82
2019-04-26T05:17:32.131Z,24.25
2019-04-26T05:20:31.873Z,23.42
2019-04-26T05:23:11.027Z,23.10
2019-04-26T05:26:07.712Z,24.32
2019-04-26T05:28:51.704Z,25.02
2019-04-26T05:31:34.948Z,25.45
2019-04-26T05:34:11.842Z,25.88
2019-04-26T05:37:21.868Z,25.02
2019-04-26T05:40:18.323Z,27.20
2019-04-26T05:42:53.696Z,26.07
2019-04-26T05:45:50.456Z,26.77
2019-04-26T05:51:44.082Z,30.85
2019-04-26T05:54:56.821Z,28.67
2019-04-26T05:57:43.087Z,28.15
2019-04-26T06:00:31.819Z,28.95
2019-04-26T06:03:25.453Z,30.90
2019-04-26T06:06:16.335Z,29.67
2019-04-26T06:09:02.469Z,29.15
2019-04-26T06:14:52.994Z,29.07
2019-04-26T06:17:48.945Z,30.02
2019-04-26T06:20:31.148Z,28.60
2019-04-26T06:23:13.077Z,28.15
2019-04-26T06:25:47.392Z,29.20
2019-04-26T06:28:35.194Z,29.35
2019-04-26T06:31:07.948Z,30.80
2019-04-26T06:33:56.593Z,30.27
2019-04-26T06:36:42.919Z,30.88
2019-04-26T06:39:34.210Z,31.02
2019-04-26T06:42:48.457Z,31.45
2019-04-26T06:45:28.424Z,31.68
2019-04-26T06:48:14.556Z,30.48
2019-04-26T06:51:22.483Z,31.15
2019-04-26T06:53:58.876Z,30.75
2019-04-26T06:59:48.372Z,31.02
2019-04-26T07:02:57.665Z,29.12
2019-04-26T07:08:06.828Z,28.30
2019-04-26T07:11:00.749Z,27.22
2019-04-26T07:16:54.907Z,27.58
2019-04-26T07:20:03.237Z,28.15
2019-04-26T07:22:45.574Z,27.42
2019-04-26T07:25:48.733Z,26.60
2019-04-26T07:28:51.193Z,26.82
2019-04-26T07:31:47.573Z,25.50
2019-04-26T07:34:24.379Z,26.05
2019-04-26T07:37:06.763Z,26.02
2019-04-26T07:39:53.099Z,25.70
2019-04-26T07:42:45.087Z,25.75
2019-04-26T07:45:25.138Z,25.30
2019-04-26T07:48:24.541Z,24.67
2019-04-26T07:51:13.704Z,24.60
2019-04-26T07:54:19.539Z,25.90
2019-04-26T07:57:10.789Z,25.00
2019-04-26T08:00:07.148Z,24.52
2019-04-26T08:02:56.478Z,22.40
2019-04-26T08:05:39.315Z,21.37
2019-04-26T08:08:10.909Z,20.77
2019-04-26T08:10:40.680Z,18.85
2019-04-26T08:13:16.240Z,20.75
2019-04-26T08:15:59.347Z,18.27
2019-04-26T08:18:35.479Z,17.50
2019-04-26T08:21:13.821Z,16.77
2019-04-26T08:23:43.220Z,16.73
2019-04-26T08:26:13.738Z,15.72
2019-04-26T08:28:43.303Z,14.63
2019-04-26T08:31:21.127Z,15.30
2019-04-26T08:33:49.731Z,14.90
2019-04-26T08:36:19.601Z,15.23
2019-04-26T08:38:52.625Z,15.30
2019-04-26T08:41:22.304Z,15.20
2019-04-26T08:43:55.826Z,14.70
2019-04-26T08:46:32.404Z,15.72
2019-04-26T08:49:09.613Z,15.40
2019-04-26T08:51:39.439Z,15.13
2019-04-26T08:54:13.528Z,14.25
2019-04-26T08:56:46.134Z,14.95
2019-04-26T08:59:24.175Z,14.20
2019-04-26T09:01:56.300Z,14.68
2019-04-26T09:04:35.576Z,14.40
2019-04-26T09:07:12.400Z,15.35
2019-04-26T09:09:42.010Z,12.58
2019-04-26T09:12:22.461Z,12.40
2019-04-26T09:14:46.435Z,12.58
2019-04-26T09:17:16.083Z,13.05
2019-04-26T09:19:46.296Z,11.70
2019-04-26T09:22:17.427Z,9.65
2019-04-26T09:24:48.718Z,9.98
2019-04-26T09:27:21.113Z,9.58
2019-04-26T09:30:05.102Z,9.33
2019-04-26T09:32:34.980Z,9.03
2019-04-26T09:35:06.307Z,8.88
2019-04-26T09:37:35.856Z,9.28
2019-04-26T09:40:10.342Z,9.20
2019-04-26T09:42:47.351Z,9.03
2019-04-26T09:45:18.480Z,8.80
2019-04-26T09:47:55.346Z,8.58
2019-04-26T09:50:32.580Z,8.78
2019-04-26T09:53:02.124Z,8.20
2019-04-26T09:55:35.556Z,7.75
2019-04-26T09:58:02.840Z,8.58
2019-04-26T10:00:32.315Z,7.83
2019-04-26T10:03:05.416Z,8.03
2019-04-26T10:05:34.513Z,8.55
2019-04-26T10:08:04.415Z,8.40
2019-04-26T10:10:35.445Z,8.50
2019-04-26T10:13:07.099Z,8.63
2019-04-26T10:15:47.396Z,8.45
2019-04-26T10:18:20.464Z,8.85
2019-04-26T10:20:49.912Z,9.08
2019-04-26T10:23:19.459Z,9.30
2019-04-26T10:25:51.914Z,9.73
2019-04-26T10:28:20.167Z,9.05
2019-04-26T10:30:50.588Z,9.38
2019-04-26T10:33:20.141Z,9.05
2019-04-26T10:35:52.494Z,8.98
2019-04-26T10:38:23.924Z,10.28
2019-04-26T10:40:51.955Z,19.10
2019-04-26T10:43:22.540Z,10.05
2019-04-26T10:45:53.938Z,10.90
2019-04-26T10:48:23.373Z,10.30
2019-04-26T10:50:53.399Z,9.20
2019-04-26T10:53:25.654Z,9.00
2019-04-26T10:56:14.465Z,8.05
2019-04-26T10:58:45.660Z,8.13
2019-04-26T11:01:17.641Z,8.08
2019-04-26T11:03:47.123Z,8.63
2019-04-26T11:06:16.628Z,8.85
2019-04-26T11:08:46.095Z,8.50
2019-04-26T11:11:15.651Z,8.55
2019-04-26T11:13:46.508Z,8.35
2019-04-26T11:16:16.131Z,8.10
2019-04-26T11:18:45.599Z,7.78
2019-04-26T11:21:16.258Z,8.20
2019-04-26T11:23:47.006Z,8.75
2019-04-26T11:26:16.811Z,7.97
2019-04-26T11:28:47.459Z,8.98
2019-04-26T11:31:17.024Z,8.70
2019-04-26T11:33:49.576Z,9.20
2019-04-26T11:36:17.508Z,8.70
2019-04-26T11:38:46.988Z,9.23
2019-04-26T11:41:16.598Z,8.80
2019-04-26T11:43:48.986Z,9.30
2019-04-26T11:46:17.319Z,9.38
2019-04-26T11:48:58.388Z,9.10
2019-04-26T11:51:27.488Z,9.95
2019-04-26T11:53:55.098Z,8.90
2019-04-26T11:56:24.702Z,8.90
2019-04-26T11:58:56.896Z,8.48
2019-04-26T12:01:26.985Z,7.95
2019-04-26T12:04:01.021Z,8.13
2019-04-26T12:06:47.208Z,8.10
2019-04-26T12:09:18.376Z,8.73
2019-04-26T12:11:49.609Z,9.30
2019-04-26T12:14:20.741Z,10.10
2019-04-26T12:16:55.004Z,9.28
2019-04-26T12:19:21.973Z,9.10
2019-04-26T12:21:51.521Z,8.75
2019-04-26T12:24:21.155Z,8.85
2019-04-26T12:26:55.996Z,10.45
2019-04-26T12:29:23.508Z,9.70
2019-04-26T12:31:53.043Z,8.43
2019-04-26T12:34:22.587Z,9.70
2019-04-26T12:36:52.216Z,10.05
2019-04-26T12:39:22.583Z,8.68
2019-04-26T12:41:52.136Z,8.90
2019-04-26T12:44:22.072Z,9.23
2019-04-26T12:46:59.427Z,10.00
2019-04-26T12:49:30.491Z,10.38
2019-04-26T12:52:01.141Z,10.78
2019-04-26T12:54:31.813Z,10.28
2019-04-26T12:57:05.434Z,12.07
2019-04-26T12:59:43.581Z,12.47
2019-04-26T13:02:05.795Z,11.50
2019-04-26T13:04:36.170Z,11.50
2019-04-26T13:10:35.556Z,10.88
2019-04-26T13:13:08.703Z,10.40
2019-04-26T13:16:01.700Z,11.45
2019-04-26T13:18:32.023Z,12.15
2019-04-26T13:21:03.110Z,12.07
2019-04-26T13:23:32.675Z,11.90
2019-04-26T13:26:02.160Z,10.40
2019-04-26T13:31:02.188Z,10.72
2019-04-26T13:33:31.808Z,10.50
2019-04-26T13:36:03.262Z,10.15
2019-04-26T13:38:32.547Z,11.33
2019-04-26T13:41:04.773Z,9.78
2019-04-26T13:43:33.345Z,11.03
2019-04-26T13:46:05.759Z,10.72
2019-04-26T13:48:43.811Z,12.82
2019-04-26T13:51:24.714Z,12.95
2019-04-26T13:53:54.428Z,13.28
2019-04-26T13:56:24.052Z,12.20
2019-04-26T13:58:54.452Z,12.40
2019-04-26T14:01:24.787Z,12.80
2019-04-26T14:03:54.420Z,10.53
2019-04-26T14:06:23.912Z,10.85
2019-04-26T14:08:53.907Z,10.40
2019-04-26T14:11:28.198Z,10.40
2019-04-26T14:14:00.107Z,9.85
2019-04-26T14:16:27.601Z,10.18
2019-04-26T14:18:59.959Z,10.90
2019-04-26T14:21:33.132Z,10.53
2019-04-26T14:24:08.547Z,10.85
2019-04-26T14:26:41.359Z,11.05
2019-04-26T14:29:11.163Z,11.65
2019-04-26T14:31:40.659Z,12.28
2019-04-26T14:34:12.065Z,16.35
2019-04-26T14:36:43.742Z,14.87
2019-04-26T14:39:14.862Z,13.68
2019-04-26T14:41:43.795Z,13.25
2019-04-26T14:44:15.883Z,11.70
2019-04-26T14:46:48.954Z,12.35
2019-04-26T14:49:19.098Z,12.25
2019-04-26T14:51:47.027Z,12.73
2019-04-26T14:54:18.004Z,12.03
2019-04-26T14:57:10.341Z,12.40
2019-04-26T14:59:44.384Z,11.78
2019-04-26T15:02:27.693Z,11.80
2019-04-26T15:05:16.612Z,10.28
2019-04-26T15:07:51.111Z,10.13
2019-04-26T15:10:18.983Z,12.33
2019-04-26T15:12:52.823Z,10.55
2019-04-26T15:15:21.678Z,10.80
2019-04-26T15:17:53.620Z,12.68
2019-04-26T15:20:24.338Z,10.70
2019-04-26T15:22:55.392Z,12.40
2019-04-26T15:25:25.004Z,10.78
2019-04-26T15:27:54.628Z,9.93
2019-04-26T15:30:24.173Z,9.08
2019-04-26T15:32:53.728Z,21.85
2019-04-26T15:35:24.579Z,42.65
2019-04-26T15:37:57.498Z,41.73
2019-04-26T15:40:27.395Z,41.50
2019-04-26T15:43:02.980Z,13.35
2019-04-26T15:45:38.541Z,15.28
2019-04-26T15:48:22.987Z,13.08
2019-04-26T15:50:54.124Z,8.75
2019-04-26T15:53:36.620Z,2.70
2019-04-26T15:56:06.312Z,2.20
2019-04-26T15:58:38.577Z,1.70
2019-04-26T16:01:10.901Z,2.10
2019-04-26T16:03:40.855Z,2.10
2019-04-26T16:06:09.769Z,2.50
2019-04-26T16:08:42.563Z,3.20
2019-04-26T16:11:11.313Z,5.00
2019-04-26T16:13:49.350Z,4.95
2019-04-26T16:16:16.311Z,4.80
2019-04-26T16:18:44.635Z,4.87
2019-04-26T16:21:17.766Z,5.78
2019-04-26T16:23:51.156Z,5.90
2019-04-26T16:26:16.640Z,6.12
2019-04-26T16:29:06.035Z,6.00
2019-04-26T16:34:12.209Z,21.05
2019-04-26T16:36:45.141Z,8.20
2019-04-26T16:39:13.201Z,10.08
2019-04-26T16:41:43.078Z,10.03
2019-04-26T16:44:13.045Z,9.75
2019-04-26T16:46:43.860Z,10.60
2019-04-26T16:49:14.631Z,12.45
2019-04-26T16:54:21.332Z,13.65
2019-04-26T16:56:44.399Z,15.38
2019-04-26T16:59:22.880Z,14.53
2019-04-26T17:01:47.452Z,15.45
2019-04-26T17:04:20.092Z,14.60
2019-04-26T17:06:48.717Z,15.15
2019-04-26T17:09:18.345Z,15.20
2019-04-26T17:11:48.001Z,16.62
2019-04-26T17:14:17.613Z,16.00
2019-04-26T17:16:47.523Z,14.95
2019-04-26T17:19:19.757Z,15.05
2019-04-26T17:21:50.035Z,16.12
2019-04-26T17:24:27.171Z,16.93
2019-04-26T17:26:58.283Z,17.05
2019-04-26T17:29:27.912Z,16.82
2019-04-26T17:34:31.135Z,25.00
2019-04-26T17:36:58.101Z,23.20
2019-04-26T17:39:24.960Z,24.30
2019-04-26T17:41:54.261Z,20.80
2019-04-26T17:44:26.314Z,18.70
2019-04-26T17:46:56.203Z,19.00
2019-04-26T17:49:21.435Z,17.20
2019-04-26T17:51:46.399Z,16.73
2019-04-26T17:54:40.774Z,16.60
2019-04-26T17:56:42.307Z,18.40
2019-04-26T17:59:12.197Z,16.87
2019-04-26T18:01:45.296Z,17.02
2019-04-26T18:04:07.015Z,29.63
2019-04-26T18:06:34.145Z,69.47
2019-04-26T18:09:01.296Z,91.50
2019-04-26T18:11:30.289Z,60.60
2019-04-26T18:13:57.441Z,80.72
2019-04-26T18:16:29.274Z,59.08
2019-04-26T18:19:12.794Z,346.15
2019-04-26T18:21:44.391Z,83.55
2019-04-26T18:24:13.015Z,198.32
2019-04-26T18:26:59.315Z,215.03
2019-04-26T18:29:23.672Z,297.98
2019-04-26T18:31:53.494Z,264.25
2019-04-26T18:34:21.130Z,84.72
2019-04-26T18:36:48.182Z,36.45
2019-04-26T18:39:18.011Z,29.85
2019-04-26T18:41:44.407Z,99.10
2019-04-26T18:44:11.259Z,150.65
2019-04-26T18:46:42.939Z,80.55
2019-04-26T18:49:11.407Z,49.33
2019-04-26T18:51:37.287Z,43.97
2019-04-26T18:54:23.414Z,136.90
2019-04-26T18:56:53.348Z,138.28
2019-04-26T18:59:20.813Z,99.65
2019-04-26T19:01:47.881Z,82.02
2019-04-26T19:04:15.538Z,90.80
2019-04-26T19:06:43.469Z,79.07
2019-04-26T19:09:25.825Z,27.45
2019-04-26T19:11:53.566Z,65.37
2019-04-26T19:14:29.191Z,95.60
2019-04-26T19:17:14.795Z,44.63
2019-04-26T19:19:43.767Z,60.17
2019-04-26T19:22:32.199Z,83.07
2019-04-26T19:25:18.817Z,163.32
2019-04-26T19:27:47.113Z,72.82
2019-04-26T19:30:09.131Z,69.62
2019-04-26T19:32:35.433Z,37.93
2019-04-26T19:35:07.016Z,68.70
2019-04-26T19:37:36.776Z,67.17
2019-04-26T19:40:02.897Z,23.70
2019-04-26T19:42:36.656Z,19.65
2019-04-26T19:45:13.712Z,17.55
2019-04-26T19:47:52.461Z,23.65
2019-04-26T19:50:42.022Z,18.37
2019-04-26T19:53:19.729Z,18.17
2019-04-26T19:56:04.599Z,20.15
2019-04-26T19:58:36.358Z,48.80
2019-04-26T20:01:04.348Z,19.35
2019-04-26T20:03:32.084Z,19.70
2019-04-26T20:06:00.070Z,21.50
2019-04-26T20:08:29.368Z,15.60
2019-04-26T20:10:55.885Z,16.37
2019-04-26T20:13:22.946Z,25.55
2019-04-26T20:15:51.441Z,15.10
2019-04-26T20:18:20.940Z,20.05
2019-04-26T20:20:47.775Z,15.88
2019-04-26T20:23:14.925Z,19.73
2019-04-26T20:25:42.084Z,17.00
2019-04-26T20:28:09.224Z,15.55
2019-04-26T20:30:47.127Z,18.95
2019-04-26T20:33:14.279Z,16.40
2019-04-26T20:35:42.421Z,16.50
2019-04-26T20:38:09.806Z,32.17
2019-04-26T20:40:37.571Z,16.87
2019-04-26T20:43:06.926Z,25.35
2019-04-26T20:45:41.473Z,17.80
2019-04-26T20:48:02.360Z,16.20
2019-04-26T20:50:35.163Z,15.25
2019-04-26T20:53:04.385Z,19.42
2019-04-26T20:55:52.705Z,16.85
2019-04-26T20:58:19.882Z,19.73
2019-04-26T21:00:54.092Z,21.90
2019-04-26T21:03:23.719Z,16.60
2019-04-26T21:05:46.559Z,17.67
2019-04-26T21:08:32.512Z,20.85
2019-04-26T21:11:00.261Z,21.45
2019-04-26T21:13:47.999Z,16.60
2019-04-26T21:16:15.619Z,16.12
2019-04-26T21:18:44.327Z,19.05
2019-04-26T21:21:12.039Z,14.27
2019-04-26T21:23:40.205Z,15.93
2019-04-26T21:28:55.672Z,15.63
2019-04-26T21:31:24.323Z,15.32
2019-04-26T21:33:56.831Z,15.00
2019-04-26T21:36:40.534Z,13.98
2019-04-26T21:39:23.892Z,13.95
2019-04-26T21:41:53.212Z,14.87
2019-04-26T21:46:49.717Z,14.45
2019-04-26T21:49:20.393Z,14.17
2019-04-26T21:51:44.703Z,16.33
2019-04-26T21:54:14.414Z,14.55
2019-04-26T21:56:48.405Z,14.20
2019-04-26T21:59:11.100Z,15.30
2019-04-26T22:01:38.215Z,14.65
2019-04-26T22:04:06.867Z,13.90
2019-04-26T22:06:33.872Z,15.28
2019-04-26T22:09:04.747Z,14.03
2019-04-26T22:11:32.871Z,13.72
2019-04-26T22:14:03.104Z,14.45
2019-04-26T22:16:48.695Z,14.63
2019-04-26T22:22:25.064Z,14.63
2019-04-26T22:24:55.515Z,14.10
2019-04-26T22:27:25.266Z,14.28
2019-04-26T22:29:51.775Z,13.58
2019-04-26T22:32:19.858Z,13.70
2019-04-26T22:34:46.812Z,14.47
2019-04-26T22:37:16.141Z,14.05
2019-04-26T22:39:44.361Z,14.55
2019-04-26T22:42:13.796Z,14.38
2019-04-26T22:44:48.779Z,14.35
2019-04-26T22:47:18.181Z,13.88
2019-04-26T22:49:45.260Z,14.05
2019-04-26T22:52:16.230Z,14.10
2019-04-26T22:54:44.888Z,14.50
2019-04-26T22:57:13.031Z,14.43
2019-04-26T22:59:43.288Z,14.90
2019-04-26T23:04:49.018Z,15.80
2019-04-26T23:07:18.540Z,15.90
2019-04-26T23:09:51.342Z,15.25
2019-04-26T23:12:30.719Z,16.40
2019-04-26T23:15:16.032Z,16.12
2019-04-26T23:17:53.376Z,15.85
2019-04-26T23:20:29.226Z,16.10
2019-04-26T23:22:56.426Z,16.80
2019-04-26T23:25:23.807Z,18.30
2019-04-26T23:27:56.704Z,16.60
2019-04-26T23:30:19.697Z,25.48
2019-04-26T23:32:48.606Z,25.15
2019-04-26T23:35:15.107Z,24.20
2019-04-26T23:37:42.048Z,22.98
2019-04-26T23:40:09.419Z,21.25
2019-04-26T23:42:36.383Z,17.87
2019-04-26T23:45:04.824Z,17.35
2019-04-26T23:47:35.172Z,19.48
2019-04-26T23:50:00.519Z,18.32
2019-04-26T23:52:27.484Z,17.52
2019-04-26T23:54:54.312Z,17.85
2019-04-26T23:57:21.188Z,18.30
2019-04-26T23:59:51.159Z,17.77
